Mudcat — WCY8255 — position and weather

sailwx.info

Track history (hours):
 
Tides and Currents Weather Stations Pressure Air Temp Water Temp Dewpoint Dewpoint Depression Visibility Wind Speed Wind Dir Waves Ship Positions

Mudcat

Owner: TAURUS MARINE, SAN FRANCISCO, CA. More information available from US FCC via Universal Licensing System and Coast Guard Vessel Documentation Center.

Last reported at 2015-Jan-30 01:22 UTC. Time now 2015-Feb-01 05:45 UTC.
Position N 47°39' W 122°20'.

Length 22 m; draft 2 m.

Type: Tug. MMSI: 366969750.

Date/timePositionNaut miles runAvg speedWind from/ knotsBaromVisibWave heightAir tempDewpointWater temp
2015-Jan-30 01:22N 47°39' W 122°20'0 0.0
2015-Jan-30 01:21N 47°39' W 122°20'0 0.0
2015-Jan-30 00:32N 47°39' W 122°20'0 0.0
2015-Jan-30 00:31N 47°39' W 122°20'0 0.0
2015-Jan-29 23:33N 47°39' W 122°20'0 0.0
2015-Jan-29 23:31N 47°39' W 122°20'0 0.0
2015-Jan-29 22:34N 47°39' W 122°20'0 0.0
2015-Jan-29 22:30N 47°39' W 122°20'0 0.0
2015-Jan-29 21:34N 47°39' W 122°20'0 0.0
2015-Jan-29 21:30N 47°39' W 122°20'0 0.0
2015-Jan-29 19:43N 47°39' W 122°20'0 0.0
2015-Jan-29 19:30N 47°39' W 122°20'0 0.0
2015-Jan-29 19:13N 47°39' W 122°20'0 0.0
2015-Jan-29 18:33N 47°39' W 122°20'0 0.0
2015-Jan-29 18:33N 47°39' W 122°20'0 0.0
2015-Jan-29 17:33N 47°39' W 122°20'0 0.0
2015-Jan-29 17:33N 47°39' W 122°20'0 0.0
2015-Jan-29 16:34N 47°39' W 122°20'0 0.0
2015-Jan-29 16:33N 47°39' W 122°20'0 0.0
2015-Jan-29 15:34N 47°39' W 122°20'0 0.5
2015-Jan-29 15:33N 47°39' W 122°20'  
2015-Jan-26 18:33N 47°39' W 122°20'0 0.4
2015-Jan-26 18:29N 47°39' W 122°20'4 4.1
2015-Jan-26 17:33N 47°38' W 122°15'0 0.0
2015-Jan-26 17:24N 47°38' W 122°15'0 0.0
2015-Jan-26 16:32N 47°38' W 122°15'0 0.3
2015-Jan-26 16:29N 47°38' W 122°15'5 5.8
2015-Jan-26 15:33N 47°44' W 122°16'2 1.8
2015-Jan-26 14:33N 47°45' W 122°15'0 0.0
2015-Jan-26 13:33N 47°45' W 122°15'0 0.5
2015-Jan-26 12:31N 47°45' W 122°16'6 6.5
2015-Jan-26 11:33N 47°39' W 122°17'1 5.1
2015-Jan-26 11:19N 47°39' W 122°19'1 1.6
2015-Jan-26 10:34N 47°39' W 122°20'0 0.0
2015-Jan-26 10:33N 47°39' W 122°20'  
2015-Jan-23 16:23N 47°39' W 122°20'3 3.0
2015-Jan-23 15:22N 47°39' W 122°15'3 4.0
2015-Jan-23 14:33N 47°42' W 122°15'3 3.5
2015-Jan-23 13:33N 47°45' W 122°15'0 0.0
2015-Jan-23 12:33N 47°45' W 122°15'3 3.4
2015-Jan-23 11:33N 47°42' W 122°15'3 3.4
2015-Jan-23 10:32N 47°39' W 122°17'2 0.2
2015-Jan-22 23:11N 47°39' W 122°20'0 0.0
2015-Jan-22 23:03N 47°39' W 122°20'0 0.1
2015-Jan-22 22:32N 47°39' W 122°20'0 0.4
2015-Jan-22 22:28N 47°39' W 122°20'0 0.1
2015-Jan-22 21:33N 47°39' W 122°20'  
Track history (hours):
 
Tides and Currents Weather Stations Pressure Air Temp Water Temp Dewpoint Dewpoint Depression Visibility Wind Speed Wind Dir Waves Ship Positions

Mudcat

Owner: TAURUS MARINE, SAN FRANCISCO, CA. More information available from US FCC via Universal Licensing System and Coast Guard Vessel Documentation Center.

Last reported at 2015-Jan-30 01:22 UTC. Time now 2015-Feb-01 05:45 UTC.
Position N 47°39' W 122°20'.

Length 22 m; draft 2 m.

Type: Tug. MMSI: 366969750.

Date/timePositionNaut miles runAvg speedWind from/ knotsBaromVisibWave heightAir tempDewpointWater temp
2015-Jan-30 01:22N 47°39' W 122°20'0 0.0
2015-Jan-30 01:21N 47°39' W 122°20'0 0.0
2015-Jan-30 00:32N 47°39' W 122°20'0 0.0
2015-Jan-30 00:31N 47°39' W 122°20'0 0.0
2015-Jan-29 23:33N 47°39' W 122°20'0 0.0
2015-Jan-29 23:31N 47°39' W 122°20'0 0.0
2015-Jan-29 22:34N 47°39' W 122°20'0 0.0
2015-Jan-29 22:30N 47°39' W 122°20'0 0.0
2015-Jan-29 21:34N 47°39' W 122°20'0 0.0
2015-Jan-29 21:30N 47°39' W 122°20'0 0.0
2015-Jan-29 19:43N 47°39' W 122°20'0 0.0
2015-Jan-29 19:30N 47°39' W 122°20'0 0.0
2015-Jan-29 19:13N 47°39' W 122°20'0 0.0
2015-Jan-29 18:33N 47°39' W 122°20'0 0.0
2015-Jan-29 18:33N 47°39' W 122°20'0 0.0
2015-Jan-29 17:33N 47°39' W 122°20'0 0.0
2015-Jan-29 17:33N 47°39' W 122°20'0 0.0
2015-Jan-29 16:34N 47°39' W 122°20'0 0.0
2015-Jan-29 16:33N 47°39' W 122°20'0 0.0
2015-Jan-29 15:34N 47°39' W 122°20'0 0.5
2015-Jan-29 15:33N 47°39' W 122°20'  
2015-Jan-26 18:33N 47°39' W 122°20'0 0.4
2015-Jan-26 18:29N 47°39' W 122°20'4 4.1
2015-Jan-26 17:33N 47°38' W 122°15'0 0.0
2015-Jan-26 17:24N 47°38' W 122°15'0 0.0
2015-Jan-26 16:32N 47°38' W 122°15'0 0.3
2015-Jan-26 16:29N 47°38' W 122°15'5 5.8
2015-Jan-26 15:33N 47°44' W 122°16'2 1.8
2015-Jan-26 14:33N 47°45' W 122°15'0 0.0
2015-Jan-26 13:33N 47°45' W 122°15'0 0.5
2015-Jan-26 12:31N 47°45' W 122°16'6 6.5
2015-Jan-26 11:33N 47°39' W 122°17'1 5.1
2015-Jan-26 11:19N 47°39' W 122°19'1 1.6
2015-Jan-26 10:34N 47°39' W 122°20'0 0.0
2015-Jan-26 10:33N 47°39' W 122°20'  
2015-Jan-23 16:23N 47°39' W 122°20'3 3.0
2015-Jan-23 15:22N 47°39' W 122°15'3 4.0
2015-Jan-23 14:33N 47°42' W 122°15'3 3.5
2015-Jan-23 13:33N 47°45' W 122°15'0 0.0
2015-Jan-23 12:33N 47°45' W 122°15'3 3.4
2015-Jan-23 11:33N 47°42' W 122°15'3 3.4
2015-Jan-23 10:32N 47°39' W 122°17'2 0.2
2015-Jan-22 23:11N 47°39' W 122°20'0 0.0
2015-Jan-22 23:03N 47°39' W 122°20'0 0.1
2015-Jan-22 22:32N 47°39' W 122°20'0 0.4
2015-Jan-22 22:28N 47°39' W 122°20'0 0.1
2015-Jan-22 21:33N 47°39' W 122°20'  

Dump ship's entire track history